Ophelia, Virginia
Current Conditions -  °F | °C
As of 11:53 AM on Saturday 25 Oct 2014 (Local Time) from KNUI Reporting Station
Haze Haze  
Wind Chill: 65°   Ceiling: Unl
Heat Index: 65°   Visibility: 6mi
Dew Point: 44°   Wind: 8mph
Humidity: 47%   Direction: 230°SW
Pressure: 29.94"   Gusts: NA
Location:  37.91°N, 76.28°W
Report Text: KNUI 251553Z AUTO 23007KT 6SM HZ CLR 18/07 A2994 RMK AO2 SLP137 T01830067 $
Loading
Personal Weather Stations






























Interactive Weather Map
Tropical Storm Tracking
New forecast layout! Learn more

10-Day Weather Forecast

Advertisements
Track Severe Weather on mobile